Time;durP1;ratioP1;P1;durP2;ratioP2;P2;SDS_P1;SDS_P2;PMS_P1;PMS_P2;Temp;Humidity;BMP_temperature;BMP_pressure;BME280_temperature;BME280_humidity;BME280_pressure;Samples;Min_cycle;Max_cycle;Signal;HPM_P1;HPM_P2
2021/01/08 00:01:25;;;;;;;21.70;16.53;;;0.90;99.90;;;;;;5072894;28;20223;-71
2021/01/08 00:03:50;;;;;;;25.20;17.30;;;0.90;99.90;;;;;;5082439;28;20179;-71
2021/01/08 00:06:20;;;;;;;23.67;17.23;;;0.90;99.90;;;;;;5074036;28;20292;-72
2021/01/08 00:08:46;;;;;;;22.60;16.47;;;0.80;99.90;;;;;;5083617;28;20693;-72
2021/01/08 00:11:19;;;;;;;20.40;15.27;;;0.90;99.90;;;;;;5081453;28;20182;-72
2021/01/08 00:13:45;;;;;;;20.23;16.17;;;0.90;99.90;;;;;;5082579;28;20182;-72
2021/01/08 00:16:10;;;;;;;19.50;15.40;;;0.90;99.90;;;;;;5075264;28;20421;-72
2021/01/08 00:18:36;;;;;;;21.33;15.73;;;0.90;99.90;;;;;;5071199;28;20180;-72
2021/01/08 00:21:02;;;;;;;20.37;16.00;;;0.90;99.90;;;;;;5077500;28;20217;-73
2021/01/08 00:23:27;;;;;;;19.37;16.00;;;1.00;99.90;;;;;;5077735;28;20268;-70
2021/01/08 00:25:53;;;;;;;20.53;15.53;;;1.00;99.90;;;;;;5075821;28;20207;-72
2021/01/08 00:28:18;;;;;;;20.17;15.73;;;1.00;99.90;;;;;;5078837;28;20182;-72
2021/01/08 00:30:44;;;;;;;20.57;14.60;;;1.00;99.90;;;;;;5083078;28;20901;-72
2021/01/08 00:33:09;;;;;;;22.60;15.97;;;1.00;99.90;;;;;;5082972;28;20178;-71
2021/01/08 00:35:40;;;;;;;21.63;15.93;;;0.90;99.90;;;;;;5079705;28;20754;-72
2021/01/08 00:38:06;;;;;;;21.27;15.83;;;1.00;99.90;;;;;;5080133;28;20216;-72
2021/01/08 00:40:32;;;;;;;20.20;15.37;;;0.90;99.90;;;;;;5077770;28;20193;-72
2021/01/08 00:42:57;;;;;;;21.63;16.33;;;1.00;99.90;;;;;;5074564;28;20183;-72
2021/01/08 00:45:23;;;;;;;20.20;15.90;;;1.00;99.90;;;;;;5075536;28;20206;-71
2021/01/08 00:47:49;;;;;;;22.77;16.03;;;1.00;99.90;;;;;;5079652;28;20225;-71
2021/01/08 00:50:15;;;;;;;19.90;15.53;;;1.00;99.90;;;;;;5072804;28;20237;-70
2021/01/08 00:52:40;;;;;;;20.53;15.43;;;1.00;99.90;;;;;;5079630;28;20175;-71
2021/01/08 00:55:07;;;;;;;21.97;15.57;;;1.00;99.90;;;;;;5082802;28;20201;-71
2021/01/08 00:57:32;;;;;;;21.57;16.03;;;1.00;99.90;;;;;;5082462;28;20696;-71
2021/01/08 00:59:58;;;;;;;20.00;15.93;;;1.00;99.90;;;;;;5085332;28;20178;-72
2021/01/08 01:02:24;;;;;;;20.63;15.30;;;1.00;99.90;;;;;;5088195;28;20208;-72
2021/01/08 01:04:49;;;;;;;19.97;15.57;;;0.90;99.90;;;;;;5080187;28;20661;-71
2021/01/08 01:07:15;;;;;;;16.47;13.90;;;1.00;99.90;;;;;;5080606;28;20236;-73
2021/01/08 01:09:41;;;;;;;19.10;15.20;;;0.90;99.90;;;;;;5075469;28;20566;-72
2021/01/08 01:12:06;;;;;;;18.67;15.03;;;1.00;99.90;;;;;;5082103;28;20864;-72
2021/01/08 01:14:32;;;;;;;18.03;13.80;;;1.00;99.90;;;;;;5079322;28;20239;-72
2021/01/08 01:17:03;;;;;;;19.83;14.40;;;0.90;99.90;;;;;;5080135;28;20213;-72
2021/01/08 01:19:29;;;;;;;17.90;14.10;;;0.90;99.90;;;;;;5079300;28;20186;-71
2021/01/08 01:21:54;;;;;;;18.13;15.07;;;0.90;99.90;;;;;;5079156;28;20202;-71
2021/01/08 01:24:20;;;;;;;19.47;15.23;;;0.80;99.90;;;;;;5083793;28;20277;-71
2021/01/08 01:26:45;;;;;;;17.37;13.90;;;0.80;99.90;;;;;;5079151;28;20638;-71
2021/01/08 01:29:11;;;;;;;20.80;15.43;;;0.80;99.90;;;;;;5080176;28;20213;-71
2021/01/08 01:31:36;;;;;;;19.37;15.60;;;0.80;99.90;;;;;;5081490;28;20178;-71
2021/01/08 01:34:03;;;;;;;20.57;15.60;;;0.70;99.90;;;;;;5079416;28;20190;-71
2021/01/08 01:36:29;;;;;;;21.10;15.33;;;0.70;99.90;;;;;;5086056;28;20205;-71
2021/01/08 01:38:55;;;;;;;20.23;15.47;;;0.70;99.90;;;;;;5087024;28;20639;-72
2021/01/08 01:41:20;;;;;;;21.40;15.03;;;0.70;99.90;;;;;;5080513;28;20183;-72
2021/01/08 01:43:46;;;;;;;20.17;15.60;;;0.70;99.90;;;;;;5083087;28;20183;-71
2021/01/08 01:46:19;;;;;;;20.90;15.53;;;0.70;99.90;;;;;;5077143;28;20353;-71
2021/01/08 01:48:44;;;;;;;21.23;15.47;;;0.70;99.90;;;;;;5079711;28;20183;-71
2021/01/08 01:51:10;;;;;;;20.90;16.07;;;0.70;99.90;;;;;;5082726;28;20574;-72
2021/01/08 01:53:36;;;;;;;21.50;15.30;;;0.60;99.90;;;;;;5087685;28;20271;-72
2021/01/08 01:56:02;;;;;;;19.40;15.03;;;0.70;99.90;;;;;;5085759;28;20203;-70
2021/01/08 01:58:27;;;;;;;20.43;15.20;;;0.60;99.90;;;;;;5084553;28;20199;-72
2021/01/08 02:00:53;;;;;;;20.43;15.57;;;0.60;99.90;;;;;;5076208;28;20197;-72
2021/01/08 02:03:34;;;;;;;21.30;15.67;;;0.60;99.90;;;;;;5085717;28;20700;-70
2021/01/08 02:06:03;;;;;;;22.17;15.53;;;0.50;99.90;;;;;;5084280;28;20211;-73
2021/01/08 02:08:29;;;;;;;19.80;15.27;;;0.40;99.90;;;;;;5082430;28;20193;-69
2021/01/08 02:11:10;;;;;;;20.57;14.97;;;0.40;99.90;;;;;;5077586;28;20214;-71
2021/01/08 02:13:42;;;;;;;21.40;15.37;;;0.30;99.90;;;;;;5080058;28;20234;-71
2021/01/08 02:16:09;;;;;;;21.77;15.53;;;0.30;99.90;;;;;;5084022;28;20206;-73
2021/01/08 02:18:37;;;;;;;20.40;15.40;;;0.30;99.90;;;;;;5085651;28;20184;-71
2021/01/08 02:21:07;;;;;;;20.80;15.53;;;0.20;99.90;;;;;;5078596;28;20236;-73
2021/01/08 02:23:45;;;;;;;22.40;16.00;;;0.20;99.90;;;;;;5081218;28;20182;-72
2021/01/08 02:26:12;;;;;;;20.23;15.03;;;0.20;99.90;;;;;;5079623;28;20217;-72
2021/01/08 02:28:38;;;;;;;19.73;14.73;;;0.20;99.90;;;;;;5081105;28;20228;-72
2021/01/08 02:31:04;;;;;;;20.73;15.13;;;0.20;99.90;;;;;;5075677;28;20193;-71
2021/01/08 02:33:30;;;;;;;18.50;14.17;;;0.20;99.90;;;;;;5079270;28;20210;-70
2021/01/08 02:36:01;;;;;;;18.80;14.60;;;0.20;99.90;;;;;;5085485;28;20220;-72
2021/01/08 02:38:27;;;;;;;21.63;16.10;;;0.20;99.90;;;;;;5075032;28;20193;-73
2021/01/08 02:40:54;;;;;;;20.70;15.80;;;0.20;99.90;;;;;;5078179;28;20194;-71
2021/01/08 02:43:25;;;;;;;21.47;16.07;;;0.20;99.90;;;;;;5081086;28;20278;-71
2021/01/08 02:45:51;;;;;;;19.30;14.87;;;0.20;99.90;;;;;;5081199;28;20287;-71
2021/01/08 02:48:18;;;;;;;20.47;14.23;;;0.20;99.90;;;;;;5078935;28;20205;-72
2021/01/08 02:50:44;;;;;;;21.37;15.80;;;0.20;99.90;;;;;;5081706;28;20631;-73
2021/01/08 02:53:14;;;;;;;19.53;15.27;;;0.20;99.90;;;;;;5079053;28;20187;-70
2021/01/08 02:55:46;;;;;;;19.67;15.40;;;0.10;99.90;;;;;;5078245;28;20255;-72
2021/01/08 02:58:12;;;;;;;20.87;15.23;;;0.10;99.90;;;;;;5079614;28;20180;-71
2021/01/08 03:00:38;;;;;;;21.27;16.23;;;0.00;99.90;;;;;;5079477;28;20189;-71
2021/01/08 03:03:04;;;;;;;22.50;16.40;;;-0.10;99.90;;;;;;5084337;28;20233;-72
2021/01/08 03:05:31;;;;;;;22.63;15.33;;;-0.20;99.90;;;;;;5077563;28;20291;-72
2021/01/08 03:07:57;;;;;;;22.03;15.33;;;-0.20;99.90;;;;;;5075854;28;20178;-72
2021/01/08 03:10:27;;;;;;;21.43;14.33;;;-0.20;99.90;;;;;;5078165;28;20293;-72
2021/01/08 03:13:00;;;;;;;18.47;13.80;;;-0.20;99.90;;;;;;5083374;28;20210;-73
2021/01/08 03:15:26;;;;;;;18.17;13.97;;;-0.20;99.90;;;;;;5083686;28;20192;-71
2021/01/08 03:17:52;;;;;;;19.63;14.23;;;-0.20;99.90;;;;;;5078903;28;20674;-71
2021/01/08 03:20:17;;;;;;;18.97;13.77;;;-0.20;99.90;;;;;;5054245;28;667831;-71
2021/01/08 03:22:43;;;;;;;21.23;14.13;;;-0.20;99.90;;;;;;5081948;28;20189;-71
2021/01/08 03:25:09;;;;;;;16.97;13.77;;;-0.20;99.90;;;;;;5087808;28;20278;-71
2021/01/08 03:27:35;;;;;;;18.83;13.93;;;-0.10;99.90;;;;;;5078668;28;20194;-72
2021/01/08 03:30:01;;;;;;;18.53;13.33;;;-0.10;99.90;;;;;;5083014;28;20220;-72
2021/01/08 03:32:26;;;;;;;18.03;13.63;;;-0.10;99.90;;;;;;5081539;28;20273;-71
2021/01/08 03:34:52;;;;;;;17.37;13.77;;;-0.10;99.90;;;;;;5084930;28;20195;-71
2021/01/08 03:37:17;;;;;;;19.80;12.83;;;0.00;99.90;;;;;;5081047;28;20190;-72
2021/01/08 03:39:43;;;;;;;20.00;13.87;;;0.00;99.90;;;;;;5077227;28;20202;-70
2021/01/08 03:42:09;;;;;;;18.40;13.00;;;0.10;99.90;;;;;;5082837;28;20190;-71
2021/01/08 03:44:34;;;;;;;18.10;13.53;;;0.10;99.90;;;;;;5080171;28;20268;-70
2021/01/08 03:47:00;;;;;;;22.60;15.10;;;0.10;99.90;;;;;;5076813;28;20225;-72
2021/01/08 03:49:25;;;;;;;20.93;15.03;;;0.10;99.90;;;;;;5082599;28;20589;-72
2021/01/08 03:51:51;;;;;;;21.73;14.87;;;0.10;99.90;;;;;;5076942;28;20177;-72
2021/01/08 03:54:17;;;;;;;23.50;16.47;;;0.10;99.90;;;;;;5074989;28;20182;-72
2021/01/08 03:56:42;;;;;;;25.53;16.70;;;0.10;99.90;;;;;;5077798;28;20245;-72
2021/01/08 03:59:08;;;;;;;23.03;16.07;;;0.10;99.90;;;;;;5082103;28;20187;-71
2021/01/08 04:01:33;;;;;;;23.00;16.03;;;0.10;99.90;;;;;;5075367;28;20182;-72
2021/01/08 04:03:59;;;;;;;22.47;16.83;;;0.10;99.90;;;;;;5083337;28;20212;-72
2021/01/08 04:06:25;;;;;;;21.97;15.37;;;0.10;99.90;;;;;;5083288;28;20212;-71
2021/01/08 04:08:50;;;;;;;21.00;15.90;;;0.10;99.90;;;;;;5083510;28;20188;-73
2021/01/08 04:11:16;;;;;;;22.93;15.27;;;0.10;99.90;;;;;;5077559;28;20189;-72
2021/01/08 04:13:41;;;;;;;18.77;14.27;;;0.10;99.90;;;;;;5080208;28;20257;-72
2021/01/08 04:16:07;;;;;;;21.70;14.93;;;0.10;99.90;;;;;;5081320;28;20204;-73
2021/01/08 04:18:32;;;;;;;16.90;13.53;;;0.10;99.90;;;;;;5080852;28;20197;-72
2021/01/08 04:20:58;;;;;;;16.83;13.77;;;0.10;99.90;;;;;;5069355;28;20196;-71
2021/01/08 04:23:24;;;;;;;17.27;13.03;;;0.10;99.90;;;;;;5082123;28;20802;-72
2021/01/08 04:25:50;;;;;;;17.33;13.57;;;0.10;99.90;;;;;;5081177;28;20598;-74
2021/01/08 04:28:15;;;;;;;15.70;12.93;;;0.10;99.90;;;;;;5079990;28;20312;-71
2021/01/08 04:30:41;;;;;;;14.70;11.37;;;0.20;99.90;;;;;;5079764;28;21714;-71
2021/01/08 04:33:06;;;;;;;16.27;11.37;;;0.20;99.90;;;;;;5085446;28;20197;-71
2021/01/08 04:35:32;;;;;;;16.70;11.83;;;0.20;99.90;;;;;;5084680;28;20212;-74
2021/01/08 04:37:58;;;;;;;16.63;11.93;;;0.20;99.90;;;;;;5079356;28;20186;-72
2021/01/08 04:40:23;;;;;;;15.33;11.83;;;0.20;99.90;;;;;;5080335;28;20600;-73
2021/01/08 04:42:49;;;;;;;13.57;10.77;;;0.30;99.90;;;;;;5088120;28;20183;-73
2021/01/08 04:45:15;;;;;;;15.53;12.40;;;0.20;99.90;;;;;;5071913;28;20253;-72
2021/01/08 04:47:43;;;;;;;15.23;11.57;;;0.20;99.90;;;;;;5072258;28;20326;-70
2021/01/08 04:50:09;;;;;;;12.23;9.30;;;0.20;99.90;;;;;;5075704;28;20212;-72
2021/01/08 04:52:36;;;;;;;13.67;10.73;;;0.20;99.90;;;;;;5078868;28;20196;-73
2021/01/08 04:55:02;;;;;;;12.30;9.37;;;0.20;99.90;;;;;;5074463;28;20240;-71
2021/01/08 04:57:31;;;;;;;13.53;10.10;;;0.30;99.90;;;;;;5076034;28;20217;-73
2021/01/08 04:59:57;;;;;;;17.33;13.20;;;0.30;99.90;;;;;;5081583;28;20193;-73
2021/01/08 05:02:22;;;;;;;17.90;12.30;;;0.20;99.90;;;;;;5076307;28;20190;-72
2021/01/08 05:04:49;;;;;;;14.73;12.53;;;0.20;99.90;;;;;;5075478;28;20213;-72
2021/01/08 05:07:15;;;;;;;14.83;12.50;;;0.20;99.90;;;;;;5081794;28;20189;-71
2021/01/08 05:09:41;;;;;;;15.80;11.93;;;0.20;99.90;;;;;;5076792;28;20267;-71
2021/01/08 05:12:06;;;;;;;15.43;11.17;;;0.20;99.90;;;;;;5085161;28;20185;-72
2021/01/08 05:14:33;;;;;;;13.97;11.47;;;0.20;99.90;;;;;;5078231;28;20262;-72
2021/01/08 05:16:59;;;;;;;15.27;11.63;;;0.30;99.90;;;;;;5081129;28;20737;-71
2021/01/08 05:19:25;;;;;;;14.60;11.17;;;0.30;99.90;;;;;;5077159;28;20267;-71
2021/01/08 05:21:53;;;;;;;15.37;12.13;;;0.20;99.90;;;;;;5077427;28;20593;-70
2021/01/08 05:24:23;;;;;;;19.13;11.47;;;0.20;99.90;;;;;;5077002;28;20186;-73
2021/01/08 05:26:52;;;;;;;17.77;12.17;;;0.20;99.90;;;;;;5082780;28;20234;-72
2021/01/08 05:29:18;;;;;;;15.97;11.47;;;0.20;99.90;;;;;;5078504;28;20291;-70
2021/01/08 05:31:46;;;;;;;13.30;10.80;;;0.20;99.90;;;;;;5079719;28;20260;-73
2021/01/08 05:34:11;;;;;;;15.27;11.50;;;0.20;99.90;;;;;;5086077;28;20596;-71
2021/01/08 05:36:37;;;;;;;15.13;11.87;;;0.20;99.90;;;;;;5079729;28;20202;-73
2021/01/08 05:39:04;;;;;;;15.83;11.40;;;0.10;99.90;;;;;;5084551;28;20258;-71
2021/01/08 05:41:31;;;;;;;16.17;11.77;;;0.10;99.90;;;;;;5081856;28;20196;-71
2021/01/08 05:43:59;;;;;;;14.47;11.93;;;0.10;99.90;;;;;;5084062;28;20676;-72
2021/01/08 05:46:34;;;;;;;17.27;11.73;;;0.10;99.90;;;;;;5081149;28;20217;-72
2021/01/08 05:49:07;;;;;;;14.57;11.23;;;0.10;99.90;;;;;;5083943;28;20213;-72
2021/01/08 05:51:36;;;;;;;15.43;11.40;;;0.10;99.90;;;;;;5079055;28;20203;-72
2021/01/08 05:54:03;;;;;;;16.30;11.80;;;0.10;99.90;;;;;;5078893;28;20187;-72
2021/01/08 05:56:34;;;;;;;12.83;10.10;;;0.10;99.90;;;;;;5072772;28;20204;-72
2021/01/08 05:59:04;;;;;;;12.70;10.40;;;0.10;99.90;;;;;;5078460;28;20180;-73
2021/01/08 06:01:31;;;;;;;12.77;9.90;;;0.20;99.90;;;;;;5071976;28;20214;-74
2021/01/08 06:04:01;;;;;;;13.90;9.63;;;0.20;99.90;;;;;;5073622;28;20185;-71
2021/01/08 06:06:39;;;;;;;13.33;9.33;;;0.20;99.90;;;;;;5080669;28;20612;-72
2021/01/08 06:09:05;;;;;;;11.07;9.00;;;0.20;99.90;;;;;;5072478;28;20208;-70
2021/01/08 06:11:31;;;;;;;12.90;10.00;;;0.30;99.90;;;;;;5082015;28;20704;-71
2021/01/08 06:14:06;;;;;;;11.73;9.37;;;0.30;99.90;;;;;;5086502;28;20191;-71
2021/01/08 06:16:37;;;;;;;12.00;8.60;;;0.30;99.90;;;;;;5081659;28;20262;-72
2021/01/08 06:19:04;;;;;;;13.10;10.17;;;0.30;99.90;;;;;;5077137;28;20218;-70
2021/01/08 06:21:37;;;;;;;11.97;9.33;;;0.40;99.90;;;;;;5081635;28;20194;-72
2021/01/08 06:24:04;;;;;;;10.80;8.47;;;0.40;99.90;;;;;;5080029;28;20198;-73
2021/01/08 06:26:31;;;;;;;11.03;8.93;;;0.40;99.90;;;;;;5086719;28;20296;-71
2021/01/08 06:29:10;;;;;;;11.63;8.57;;;0.40;99.90;;;;;;5074940;28;20193;-72
2021/01/08 06:31:45;;;;;;;10.60;8.63;;;0.40;99.90;;;;;;5081168;28;20184;-71
2021/01/08 06:34:10;;;;;;;11.47;8.90;;;0.40;99.90;;;;;;5078322;28;20602;-71
2021/01/08 06:36:46;;;;;;;13.07;9.27;;;0.40;99.90;;;;;;5089345;28;20212;-71
2021/01/08 06:39:21;;;;;;;12.33;9.07;;;0.30;99.90;;;;;;5077444;28;20190;-71
2021/01/08 06:41:53;;;;;;;11.10;9.03;;;0.40;99.90;;;;;;5080490;28;20623;-70
2021/01/08 06:44:24;;;;;;;10.10;8.63;;;0.40;99.90;;;;;;5080057;28;20214;-71
2021/01/08 06:46:52;;;;;;;12.23;9.07;;;0.40;99.90;;;;;;5082126;28;20224;-70
2021/01/08 06:49:19;;;;;;;16.00;9.63;;;0.40;99.90;;;;;;5087588;28;20289;-71
2021/01/08 06:51:46;;;;;;;12.07;9.00;;;0.40;99.90;;;;;;5078463;28;20178;-71
2021/01/08 06:54:13;;;;;;;13.33;10.20;;;0.40;99.90;;;;;;5081081;28;20197;-72
2021/01/08 06:56:46;;;;;;;11.13;9.33;;;0.40;99.90;;;;;;5081906;28;20205;-70
2021/01/08 06:59:21;;;;;;;12.87;9.87;;;0.40;99.90;;;;;;5082467;28;20186;-71
2021/01/08 07:01:52;;;;;;;15.97;9.80;;;0.40;99.90;;;;;;5080221;28;20280;-70
2021/01/08 07:04:20;;;;;;;12.97;10.13;;;0.40;99.90;;;;;;5084457;28;20181;-71
2021/01/08 07:06:47;;;;;;;11.60;9.63;;;0.40;99.90;;;;;;5084353;28;20202;-72
2021/01/08 07:09:12;;;;;;;12.57;9.57;;;0.40;99.90;;;;;;5083661;28;20220;-72
2021/01/08 07:11:38;;;;;;;12.03;9.77;;;0.40;99.90;;;;;;5082012;28;20186;-71
2021/01/08 07:14:05;;;;;;;12.00;9.80;;;0.40;99.90;;;;;;5079612;28;20198;-72
2021/01/08 07:16:31;;;;;;;12.83;10.07;;;0.40;99.90;;;;;;5083748;28;20198;-70
2021/01/08 07:19:09;;;;;;;11.50;9.57;;;0.40;99.90;;;;;;5083179;28;20189;-72
2021/01/08 07:21:40;;;;;;;11.57;8.77;;;0.40;99.90;;;;;;5082900;28;20201;-72
2021/01/08 07:24:10;;;;;;;11.90;9.40;;;0.50;99.90;;;;;;5080509;28;20198;-71
2021/01/08 07:26:36;;;;;;;11.10;9.47;;;0.50;99.90;;;;;;5079571;28;20220;-72
2021/01/08 07:29:04;;;;;;;10.73;9.33;;;0.50;99.90;;;;;;5074874;28;20205;-72
2021/01/08 07:31:32;;;;;;;12.70;10.17;;;0.60;99.90;;;;;;5081858;28;20185;-72
2021/01/08 07:33:59;;;;;;;13.67;10.30;;;0.60;99.90;;;;;;5087374;28;20210;-71
2021/01/08 07:36:27;;;;;;;12.40;9.77;;;0.60;99.90;;;;;;5086610;28;20206;-71
2021/01/08 07:38:54;;;;;;;11.17;9.80;;;0.70;99.90;;;;;;5072839;28;20179;-71
2021/01/08 07:41:40;;;;;;;12.67;10.03;;;0.70;99.90;;;;;;5084814;28;20598;-70
2021/01/08 07:44:29;;;;;;;12.63;9.80;;;0.70;99.90;;;;;;5080699;28;20223;-70
2021/01/08 07:46:54;;;;;;;12.67;9.93;;;0.80;99.90;;;;;;5073534;28;20681;-72
2021/01/08 07:49:27;;;;;;;11.20;9.17;;;0.80;99.90;;;;;;5076624;28;20201;-70
2021/01/08 07:51:53;;;;;;;12.70;10.10;;;0.80;99.90;;;;;;5070818;28;20614;-71
2021/01/08 07:54:52;;;;;;;11.33;9.90;;;0.80;99.90;;;;;;5075555;28;20549;-70
2021/01/08 07:57:18;;;;;;;11.77;10.03;;;0.90;99.90;;;;;;5078740;28;20279;-71
2021/01/08 07:59:44;;;;;;;12.00;9.40;;;0.90;99.90;;;;;;5085174;28;20354;-70
2021/01/08 08:02:10;;;;;;;12.40;10.00;;;0.90;99.90;;;;;;5079825;28;20196;-72
2021/01/08 08:04:37;;;;;;;10.53;8.57;;;0.90;99.90;;;;;;5081997;28;20196;-72
2021/01/08 08:07:03;;;;;;;11.63;9.63;;;0.90;99.90;;;;;;5075424;28;20218;-71
2021/01/08 08:09:29;;;;;;;12.67;10.03;;;1.00;99.90;;;;;;5076589;28;20202;-72
2021/01/08 08:11:55;;;;;;;11.67;9.13;;;1.00;99.90;;;;;;5078906;28;20190;-70
2021/01/08 08:14:24;;;;;;;10.67;8.90;;;1.10;99.90;;;;;;5073441;28;20633;-73
2021/01/08 08:16:50;;;;;;;11.30;9.30;;;1.10;99.90;;;;;;5073917;28;20249;-71
2021/01/08 08:19:16;;;;;;;10.40;8.40;;;1.20;99.90;;;;;;5080353;28;20264;-71
2021/01/08 08:21:50;;;;;;;11.23;8.37;;;1.30;99.90;;;;;;5085610;28;20311;-72
2021/01/08 08:24:17;;;;;;;11.70;8.80;;;1.30;99.90;;;;;;5082987;28;20582;-71
2021/01/08 08:26:44;;;;;;;12.37;8.83;;;1.30;99.90;;;;;;5078295;28;20278;-72
2021/01/08 08:29:15;;;;;;;10.07;8.97;;;1.20;99.90;;;;;;5078009;28;20214;-72
2021/01/08 08:31:45;;;;;;;10.83;8.70;;;1.30;99.90;;;;;;5079650;28;20205;-72
2021/01/08 08:34:13;;;;;;;10.33;8.17;;;1.30;99.90;;;;;;5082170;28;20223;-72
2021/01/08 08:36:39;;;;;;;9.90;8.30;;;1.20;99.90;;;;;;5079393;28;20245;-72
2021/01/08 08:39:13;;;;;;;11.67;8.63;;;1.30;99.90;;;;;;5074618;28;20188;-72
2021/01/08 08:41:44;;;;;;;10.17;8.37;;;1.20;99.90;;;;;;5075950;28;20174;-71
2021/01/08 08:44:11;;;;;;;12.10;9.23;;;1.20;99.90;;;;;;5074861;28;20182;-73
2021/01/08 08:46:44;;;;;;;10.77;9.57;;;1.20;99.90;;;;;;5075324;28;20198;-72
2021/01/08 08:49:13;;;;;;;11.10;8.87;;;1.20;99.90;;;;;;5079113;28;20322;-71
2021/01/08 08:51:49;;;;;;;9.27;8.23;;;1.20;99.90;;;;;;5079959;28;20964;-71
2021/01/08 08:54:15;;;;;;;9.30;8.03;;;1.20;99.90;;;;;;5078356;28;20229;-72
2021/01/08 08:56:55;;;;;;;9.50;8.40;;;1.30;99.90;;;;;;5080440;28;20309;-72
2021/01/08 08:59:46;;;;;;;9.43;8.50;;;1.30;99.90;;;;;;5085975;28;20588;-72
2021/01/08 09:02:27;;;;;;;9.10;7.87;;;1.40;99.90;;;;;;5082121;28;20660;-74
2021/01/08 09:05:00;;;;;;;11.83;6.80;;;1.50;99.90;;;;;;5077507;28;20190;-73
2021/01/08 09:07:53;;;;;;;8.47;7.60;;;1.60;99.60;;;;;;5082349;28;20182;-72
2021/01/08 09:10:28;;;;;;;8.57;7.33;;;1.60;99.30;;;;;;5079780;28;20241;-71
2021/01/08 09:13:00;;;;;;;7.43;6.73;;;1.80;99.00;;;;;;5077860;28;20206;-74
2021/01/08 09:15:32;;;;;;;9.53;7.50;;;2.00;98.50;;;;;;5085952;28;20209;-73
2021/01/08 09:18:35;;;;;;;10.00;7.20;;;2.00;98.30;;;;;;5083757;28;20184;-70
2021/01/08 09:21:06;;;;;;;10.20;7.63;;;2.00;98.20;;;;;;5082809;28;20198;-73
2021/01/08 09:23:35;;;;;;;8.20;7.40;;;1.90;98.30;;;;;;5078916;28;20179;-73
2021/01/08 09:26:06;;;;;;;8.33;7.20;;;2.00;98.40;;;;;;5081217;28;20199;-71
2021/01/08 09:28:50;;;;;;;7.80;7.00;;;2.00;98.00;;;;;;5078886;28;20473;-71
2021/01/08 09:31:16;;;;;;;10.93;7.50;;;2.10;97.80;;;;;;5076917;28;20231;-73
2021/01/08 09:33:57;;;;;;;9.47;8.27;;;2.20;97.60;;;;;;5077480;28;20184;-71
2021/01/08 09:36:34;;;;;;;8.77;7.10;;;2.40;97.30;;;;;;5076022;28;20271;-72
2021/01/08 09:39:04;;;;;;;8.90;7.00;;;2.50;96.70;;;;;;5079435;28;20556;-72
2021/01/08 09:41:33;;;;;;;8.47;7.47;;;2.80;96.10;;;;;;5074602;28;20178;-72
2021/01/08 09:44:00;;;;;;;11.07;9.13;;;3.10;95.10;;;;;;5082350;28;20183;-72
2021/01/08 09:46:26;;;;;;;8.73;7.30;;;3.20;94.70;;;;;;5077393;28;20198;-72
2021/01/08 09:49:04;;;;;;;8.57;7.67;;;3.60;94.00;;;;;;5085822;28;20756;-72
2021/01/08 09:51:30;;;;;;;8.17;7.33;;;3.70;92.80;;;;;;5084035;28;20644;-72
2021/01/08 09:53:56;;;;;;;8.57;7.67;;;3.80;92.10;;;;;;5078551;28;20179;-73
2021/01/08 09:56:22;;;;;;;7.63;6.87;;;4.20;91.30;;;;;;5086317;28;20705;-72
2021/01/08 09:59:12;;;;;;;6.57;5.87;;;4.40;90.20;;;;;;5080923;28;20179;-71
2021/01/08 10:02:00;;;;;;;8.60;7.73;;;4.60;88.20;;;;;;5083136;28;20579;-72
2021/01/08 10:04:30;;;;;;;10.20;5.90;;;4.50;89.60;;;;;;5081742;28;20191;-71
2021/01/08 10:06:59;;;;;;;7.43;6.70;;;4.50;88.60;;;;;;5078198;28;20222;-73
2021/01/08 10:09:25;;;;;;;6.23;5.63;;;4.30;90.00;;;;;;5078326;28;20215;-73
2021/01/08 10:12:00;;;;;;;7.53;6.73;;;4.00;90.60;;;;;;5086441;28;20661;-71
2021/01/08 10:14:30;;;;;;;7.67;6.93;;;3.90;91.40;;;;;;5081584;28;20175;-72
2021/01/08 10:17:11;;;;;;;7.43;6.63;;;4.10;91.00;;;;;;5078359;28;20201;-72
2021/01/08 10:19:39;;;;;;;8.80;7.90;;;4.00;90.60;;;;;;5077075;28;20624;-74
2021/01/08 10:22:04;;;;;;;7.80;7.00;;;3.70;91.40;;;;;;5083660;28;20667;-71
2021/01/08 10:24:31;;;;;;;9.90;6.57;;;3.40;92.40;;;;;;5076544;28;20191;-72
2021/01/08 10:26:56;;;;;;;6.87;6.00;;;3.30;93.30;;;;;;5078979;28;20209;-72
2021/01/08 10:29:38;;;;;;;6.67;5.87;;;3.10;93.10;;;;;;5078426;28;20750;-72
2021/01/08 10:32:11;;;;;;;8.03;6.20;;;3.00;93.90;;;;;;5078463;28;20529;-72
2021/01/08 10:34:42;;;;;;;8.23;6.63;;;2.90;94.50;;;;;;5085124;28;20265;-71
2021/01/08 10:37:18;;;;;;;6.77;6.17;;;2.90;94.70;;;;;;5082312;28;20203;-71
2021/01/08 10:39:45;;;;;;;7.80;7.10;;;2.90;94.60;;;;;;5081809;28;20174;-71
2021/01/08 10:42:12;;;;;;;9.17;6.60;;;3.00;95.00;;;;;;5078359;28;20561;-71
2021/01/08 10:44:38;;;;;;;7.33;6.63;;;3.10;94.40;;;;;;5085721;28;20226;-72
2021/01/08 10:47:06;;;;;;;7.77;6.97;;;3.20;94.50;;;;;;5083962;28;20250;-73
2021/01/08 10:49:32;;;;;;;7.20;6.50;;;3.20;94.10;;;;;;5080505;28;20224;-71
2021/01/08 10:51:58;;;;;;;6.73;5.93;;;3.20;93.90;;;;;;5079248;28;20250;-71
2021/01/08 10:54:24;;;;;;;7.43;6.73;;;3.20;93.90;;;;;;5081801;28;20687;-71
2021/01/08 10:56:50;;;;;;;22.63;11.23;;;3.40;94.20;;;;;;5077375;28;20202;-71
2021/01/08 10:59:16;;;;;;;6.47;5.53;;;3.60;93.70;;;;;;5077591;28;20209;-70
2021/01/08 11:01:45;;;;;;;6.20;5.60;;;3.80;92.20;;;;;;5080882;28;20255;-71
2021/01/08 11:04:11;;;;;;;5.87;5.30;;;3.90;91.30;;;;;;5081806;28;20184;-71
2021/01/08 11:06:40;;;;;;;5.77;5.17;;;3.90;91.00;;;;;;5079341;28;20210;-70
2021/01/08 11:09:07;;;;;;;5.50;5.00;;;4.10;90.80;;;;;;5079270;28;20175;-71
2021/01/08 11:11:33;;;;;;;5.20;4.70;;;4.00;89.70;;;;;;5081810;28;20177;-71
2021/01/08 11:13:59;;;;;;;4.90;4.40;;;4.00;89.70;;;;;;5077248;28;20185;-71
2021/01/08 11:16:26;;;;;;;6.40;5.23;;;4.00;88.50;;;;;;5081221;28;20576;-70
2021/01/08 11:18:52;;;;;;;6.17;5.27;;;4.00;88.30;;;;;;5080665;28;20175;-69
2021/01/08 11:21:19;;;;;;;5.33;4.83;;;3.90;90.00;;;;;;5083916;28;20221;-70
2021/01/08 11:23:45;;;;;;;6.43;5.53;;;3.70;87.70;;;;;;5081073;28;20186;-70
2021/01/08 11:26:11;;;;;;;5.50;5.00;;;3.70;89.50;;;;;;5080766;28;20201;-71
2021/01/08 11:28:37;;;;;;;7.17;6.47;;;3.60;89.90;;;;;;5079812;28;20182;-70
2021/01/08 11:31:03;;;;;;;7.07;6.30;;;3.60;89.30;;;;;;5092038;28;20231;-71
2021/01/08 11:33:29;;;;;;;6.90;5.47;;;3.50;90.00;;;;;;5083280;28;20180;-70
2021/01/08 11:35:55;;;;;;;7.03;6.33;;;3.60;89.70;;;;;;5089231;28;20197;-70
2021/01/08 11:38:20;;;;;;;4.37;3.97;;;3.70;89.00;;;;;;5084562;28;20176;-71
2021/01/08 11:40:46;;;;;;;6.17;4.80;;;3.50;86.60;;;;;;5091415;28;20691;-71
2021/01/08 11:43:12;;;;;;;4.93;4.43;;;3.40;89.70;;;;;;5086487;28;20187;-70
2021/01/08 11:45:37;;;;;;;4.23;3.83;;;3.30;88.60;;;;;;5090682;28;20202;-71
2021/01/08 11:48:03;;;;;;;4.40;4.00;;;3.20;90.10;;;;;;5075247;28;20670;-71
2021/01/08 11:50:29;;;;;;;5.73;5.13;;;3.30;90.50;;;;;;5081852;28;20213;-72
2021/01/08 11:52:54;;;;;;;7.37;5.33;;;3.30;90.00;;;;;;5079362;28;20185;-70
2021/01/08 11:55:20;;;;;;;5.73;5.13;;;3.40;88.10;;;;;;5085905;28;20206;-72
2021/01/08 11:57:45;;;;;;;8.17;6.73;;;3.50;88.30;;;;;;5075635;28;20184;-72
2021/01/08 12:00:12;;;;;;;9.67;8.00;;;3.40;87.90;;;;;;5072886;28;20670;-71
2021/01/08 12:02:37;;;;;;;8.07;5.93;;;3.40;89.00;;;;;;5072764;28;20183;-71
2021/01/08 12:05:04;;;;;;;11.30;6.10;;;3.50;88.80;;;;;;5080733;28;20218;-71
2021/01/08 12:07:32;;;;;;;6.00;5.40;;;3.50;87.80;;;;;;5075306;28;20183;-71
2021/01/08 12:09:57;;;;;;;5.17;4.67;;;3.60;87.90;;;;;;5083088;28;20216;-71
2021/01/08 12:12:23;;;;;;;5.97;5.30;;;3.70;87.60;;;;;;5075725;28;20183;-72
2021/01/08 12:14:49;;;;;;;5.50;4.00;;;3.70;86.10;;;;;;5080136;28;20187;-70
2021/01/08 12:17:14;;;;;;;6.03;4.57;;;3.70;85.20;;;;;;5078833;28;20190;-70
2021/01/08 12:19:40;;;;;;;5.10;4.60;;;3.70;84.90;;;;;;5079608;28;20185;-72
2021/01/08 12:22:05;;;;;;;4.97;4.47;;;3.60;85.90;;;;;;5082801;28;20282;-71
2021/01/08 12:24:31;;;;;;;4.27;3.80;;;3.50;86.30;;;;;;5076661;28;20606;-71
2021/01/08 12:26:57;;;;;;;5.93;5.10;;;3.40;85.10;;;;;;5084047;28;20416;-71
2021/01/08 12:29:26;;;;;;;6.70;5.90;;;3.40;86.90;;;;;;5083418;28;20210;-71
2021/01/08 12:31:53;;;;;;;8.50;6.60;;;3.40;87.90;;;;;;5094605;28;20212;-72
2021/01/08 12:34:18;;;;;;;6.73;5.87;;;3.30;87.10;;;;;;5096239;28;20178;-73
2021/01/08 12:36:44;;;;;;;5.70;5.00;;;3.30;87.20;;;;;;5089625;28;20303;-71
2021/01/08 12:39:11;;;;;;;6.07;4.97;;;3.20;85.90;;;;;;5079473;28;20179;-72
2021/01/08 12:41:36;;;;;;;6.03;4.40;;;3.10;87.50;;;;;;5087569;28;20185;-71
2021/01/08 12:44:02;;;;;;;6.33;4.70;;;3.00;88.40;;;;;;5094950;28;20215;-72
2021/01/08 12:46:28;;;;;;;6.67;4.77;;;3.00;89.60;;;;;;5092235;28;20206;-72
2021/01/08 12:48:53;;;;;;;5.37;4.50;;;3.00;88.40;;;;;;5092708;28;20184;-72